Aérodrome :
LOGIN :

S'inscrire | Disclaimer

   EN    FR    IT 

 










Légende :    VFR   VFR Marginal   IFR   IFR Intensif   IFR Très Intensif
Visi : 
Plafond : 
>= 8 km
>= 3000ft
5 à 8 km
1000 à 3000 ft
1500m à 5 km
500 à 1000 ft
800 à 1500m
200 à 500 ft
< 800m
< 200 ft
Symboles :   Orages  Brouillard  Fortes neiges  Fortes précipitations  Vent > 20 kt
SIGMETs :   Divers  Orages  Givrage  Turbulence  Onde Orograph.  Cendres Volcan.







- Altitude de l'aérodrome : 348 ft
- Code IATA : STN
- Voir les cartes d'approche


EGSS - London Stansted

DERNIER METAR :
  • 192320Z AUTO 16017KT 9999 BKN011/// OVC016/// //////TCU 13/12 Q0998

METARs EXPIRÉS :
  • 192250Z AUTO 16018KT 9999 BKN017 BKN027 OVC036 14/11 Q0999
  • 192220Z AUTO 17015KT 9999 -RA SCT019/// //////TCU 14/12 Q0999
  • 192150Z AUTO 17018KT 9999 -RA BKN020 14/12 Q1000
  • 192120Z AUTO 17016KT 9999 -RA FEW028 15/12 Q1000
  • 192050Z AUTO 18013KT 9999 -RA NCD 15/13 Q1000

TAF TAF EGSS
Valide du 20 à 00h jusqu'au 21 à 06h UTC


192300Z 2000/2106 18014KT 9999 FEW020
TEMPO 2000/2006 19015G25KT 6000 RADZ BKN008
PROB30
TEMPO 2003/2006 3000 BR BKN004
BECMG 2006/2009 24014KT
PROB40
TEMPO 2006/2014 25017G27KT 7000 -RADZ BKN012
BECMG 2018/2021 17008KT
TEMPO 2022/2102 7000 RA BKN012
PROB30
TEMPO 2022/2102 4000 +RA BKN006
ATIS : +44 1279 669 325
Pas de NOTAMs connus pour ce terrain.
2 SIGMETs publiés pour la FIR London (EGTT) :
 
Turbulence forte
EGTT SIGMET 04 VALID 192330/200330 EGRR
EGTT LONDON FIR SEV TURB FCST WI N5000 W00015 - N5000 W00200 - N4928 W00500 - N5032 W00600 - N5040 E00128 - N5000 W00015 SFC/FL060 MOV E 15KT WKN=
Turbulence forte
EGTT SIGMET 03 VALID 192020/192330 EGRR
EGTT LONDON FIR SEV TURB FCST WI N5149 W00608 - N5024 W00401 - N5034 W00229 - N5000 W00200 - N4919 W00538 - N5053 W00720 - N5149 W00608 SFC/FL060 MOV E 20KT NC=



MET'MAP, la Météo Aéronautique d'un coup d'oeil ! - Copyright ORBIFLY Décembre 2007 - Disclaimer

ORBIFLY MET'MAP TEAM :

Programmation & Développement : Alexandra Zaïnal
Conception & Développement : Baudouin d'Aumeries
Co-Programmation & Développement : Marc-Olivier Méhu
Soutien technique & logistique : Manuel Goepfert

Contact : metmap@orbifly.com




SOURCES & CREDITS :

   NOAA